createdAt,value
2023-03-26T00:01:38.182Z,2.40
2023-03-26T00:04:06.679Z,1.77
2023-03-26T00:06:37.587Z,2.30
2023-03-26T00:09:06.651Z,2.70
2023-03-26T00:11:33.529Z,2.70
2023-03-26T00:14:00.176Z,2.60
2023-03-26T00:16:29.858Z,2.33
2023-03-26T00:18:57.746Z,2.90
2023-03-26T00:21:28.808Z,3.13
2023-03-26T00:23:58.432Z,2.97
2023-03-26T00:26:24.964Z,2.88
2023-03-26T00:28:51.576Z,1.83
2023-03-26T00:31:18.156Z,2.10
2023-03-26T00:33:44.751Z,2.55
2023-03-26T00:36:17.524Z,2.08
2023-03-26T00:38:46.168Z,2.13
2023-03-26T00:41:22.825Z,2.10
2023-03-26T00:43:56.218Z,1.92
2023-03-26T00:46:26.637Z,2.55
2023-03-26T00:48:53.561Z,1.85
2023-03-26T00:51:21.206Z,1.98
2023-03-26T00:53:57.745Z,1.47
2023-03-26T00:56:24.933Z,1.83
2023-03-26T00:58:51.462Z,1.63
2023-03-26T01:01:27.511Z,1.80
2023-03-26T01:04:08.271Z,1.55
2023-03-26T01:06:38.898Z,1.77
2023-03-26T01:09:14.319Z,1.80
2023-03-26T01:11:40.700Z,1.50
2023-03-26T01:14:11.574Z,1.95
2023-03-26T01:16:49.794Z,2.10
2023-03-26T01:19:33.931Z,1.27
2023-03-26T01:22:02.672Z,1.48
2023-03-26T01:24:29.182Z,1.88
2023-03-26T01:27:13.538Z,1.75
2023-03-26T01:29:49.147Z,1.63
2023-03-26T01:32:47.495Z,1.30
2023-03-26T01:35:57.523Z,1.70
2023-03-26T01:38:40.625Z,1.60
2023-03-26T01:41:23.087Z,1.80
2023-03-26T01:44:08.779Z,1.50
2023-03-26T01:46:38.037Z,2.10
2023-03-26T01:49:05.428Z,1.65
2023-03-26T01:51:35.476Z,1.52
2023-03-26T01:54:05.521Z,1.65
2023-03-26T01:56:46.472Z,2.00
2023-03-26T01:59:25.284Z,2.57
2023-03-26T02:02:07.417Z,1.83
2023-03-26T02:05:03.841Z,1.73
2023-03-26T02:07:45.688Z,1.73
2023-03-26T02:10:35.572Z,2.25
2023-03-26T02:13:02.654Z,1.47
2023-03-26T02:15:29.085Z,1.67
2023-03-26T02:17:55.484Z,2.00
2023-03-26T02:20:22.157Z,2.40
2023-03-26T02:22:48.607Z,4.47
2023-03-26T02:25:17.773Z,3.60
2023-03-26T02:27:49.596Z,4.22
2023-03-26T02:30:25.984Z,4.50
2023-03-26T02:32:54.230Z,4.75
2023-03-26T02:35:22.230Z,3.33
2023-03-26T02:37:50.865Z,3.53
2023-03-26T02:40:21.063Z,2.25
2023-03-26T02:42:47.488Z,2.70
2023-03-26T02:45:14.363Z,2.35
2023-03-26T02:47:40.756Z,2.20
2023-03-26T02:50:08.964Z,2.53
2023-03-26T02:52:37.400Z,2.67
2023-03-26T02:55:03.853Z,4.28
2023-03-26T02:57:31.170Z,3.03
2023-03-26T02:59:57.831Z,2.75
2023-03-26T03:02:24.334Z,2.03
2023-03-26T03:04:51.919Z,2.08
2023-03-26T03:07:18.297Z,2.40
2023-03-26T03:09:44.692Z,2.90
2023-03-26T03:12:11.165Z,2.72
2023-03-26T03:14:37.754Z,1.77
2023-03-26T03:17:04.223Z,2.25
2023-03-26T03:19:31.683Z,2.65
2023-03-26T03:21:58.074Z,2.28
2023-03-26T03:24:24.512Z,1.90
2023-03-26T03:26:56.803Z,2.73
2023-03-26T03:29:23.860Z,2.70
2023-03-26T03:31:50.505Z,3.42
2023-03-26T03:34:16.921Z,3.58
2023-03-26T03:36:43.287Z,2.90
2023-03-26T03:39:09.673Z,3.33
2023-03-26T03:41:36.044Z,3.15
2023-03-26T03:44:02.407Z,3.78
2023-03-26T03:46:28.887Z,4.00
2023-03-26T03:48:55.981Z,4.40
2023-03-26T03:51:22.340Z,3.90
2023-03-26T03:53:50.790Z,4.60
2023-03-26T03:56:19.304Z,4.15
2023-03-26T03:58:46.300Z,4.50
2023-03-26T04:01:13.500Z,4.82
2023-03-26T04:03:41.084Z,3.77
2023-03-26T04:06:11.071Z,4.82
2023-03-26T04:08:37.975Z,4.45
2023-03-26T04:11:04.817Z,4.78
2023-03-26T04:13:31.201Z,4.68
2023-03-26T04:15:57.983Z,4.70
2023-03-26T04:18:26.242Z,4.50
2023-03-26T04:20:54.590Z,4.30
2023-03-26T04:23:22.486Z,4.38
2023-03-26T04:25:53.812Z,4.60
2023-03-26T04:28:42.760Z,3.97
2023-03-26T04:31:15.784Z,4.28
2023-03-26T04:33:48.590Z,5.10
2023-03-26T04:36:17.840Z,5.00
2023-03-26T04:38:46.463Z,5.10
2023-03-26T04:41:13.840Z,5.70
2023-03-26T04:43:47.426Z,5.00
2023-03-26T04:46:14.583Z,4.45
2023-03-26T04:48:41.044Z,4.72
2023-03-26T04:51:07.588Z,4.90
2023-03-26T04:53:35.334Z,5.20
2023-03-26T04:56:17.049Z,5.10
2023-03-26T04:58:43.533Z,4.93
2023-03-26T05:01:11.118Z,5.30
2023-03-26T05:03:40.689Z,4.97
2023-03-26T05:06:07.571Z,5.00
2023-03-26T05:08:35.234Z,4.90
2023-03-26T05:11:01.624Z,5.95
2023-03-26T05:13:28.077Z,5.10
2023-03-26T05:15:55.604Z,5.00
2023-03-26T05:18:21.971Z,5.03
2023-03-26T05:20:56.005Z,4.88
2023-03-26T05:23:22.620Z,5.13
2023-03-26T05:25:49.053Z,4.60
2023-03-26T05:28:15.445Z,5.22
2023-03-26T05:30:43.470Z,5.13
2023-03-26T05:33:10.669Z,5.35
2023-03-26T05:35:43.417Z,6.15
2023-03-26T05:38:09.863Z,5.47
2023-03-26T05:40:36.626Z,6.07
2023-03-26T05:43:03.384Z,5.07
2023-03-26T05:45:30.214Z,5.32
2023-03-26T05:47:56.702Z,6.18
2023-03-26T05:50:24.236Z,5.25
2023-03-26T05:52:50.978Z,5.93
2023-03-26T05:55:18.430Z,4.87
2023-03-26T05:57:44.837Z,4.60
2023-03-26T06:00:12.106Z,5.25
2023-03-26T06:02:39.104Z,5.85
2023-03-26T06:05:05.815Z,5.10
2023-03-26T06:07:34.013Z,5.60
2023-03-26T06:10:00.893Z,5.13
2023-03-26T06:12:27.261Z,5.20
2023-03-26T06:14:56.740Z,4.82
2023-03-26T06:17:24.388Z,5.18
2023-03-26T06:19:50.770Z,5.57
2023-03-26T06:22:18.182Z,5.38
2023-03-26T06:24:45.781Z,4.90
2023-03-26T06:27:12.158Z,6.10
2023-03-26T06:29:38.658Z,5.68
2023-03-26T06:32:18.495Z,5.57
2023-03-26T06:34:46.336Z,5.63
2023-03-26T06:37:12.716Z,5.22
2023-03-26T06:39:39.088Z,4.93
2023-03-26T06:42:05.551Z,5.22
2023-03-26T06:44:32.004Z,4.93
2023-03-26T06:46:58.475Z,5.35
2023-03-26T06:49:26.070Z,4.68
2023-03-26T06:51:52.461Z,5.38
2023-03-26T06:54:18.814Z,4.63
2023-03-26T06:56:45.384Z,4.03
2023-03-26T06:59:11.738Z,4.55
2023-03-26T07:01:38.280Z,4.50
2023-03-26T07:04:04.928Z,4.57
2023-03-26T07:06:33.442Z,5.50
2023-03-26T07:08:59.800Z,5.63
2023-03-26T07:11:27.005Z,4.45
2023-03-26T07:13:56.157Z,6.30
2023-03-26T07:16:22.745Z,5.22
2023-03-26T07:18:49.409Z,5.35
2023-03-26T07:21:17.361Z,4.87
2023-03-26T07:23:45.124Z,5.82
2023-03-26T07:26:41.506Z,5.70
2023-03-26T07:29:24.016Z,5.68
2023-03-26T07:32:05.616Z,5.65
2023-03-26T07:34:38.436Z,5.73
2023-03-26T07:37:12.970Z,6.00
2023-03-26T07:39:52.184Z,5.75
2023-03-26T07:42:38.320Z,5.40
2023-03-26T07:45:24.098Z,6.30
2023-03-26T07:47:53.448Z,5.70
2023-03-26T07:50:22.758Z,6.30
2023-03-26T07:52:49.704Z,6.57
2023-03-26T07:55:16.978Z,6.68
2023-03-26T07:57:45.412Z,6.88
2023-03-26T08:00:22.088Z,7.37
2023-03-26T08:03:19.613Z,5.47
2023-03-26T08:06:10.889Z,6.97
2023-03-26T08:08:48.921Z,6.70
2023-03-26T08:11:35.374Z,6.15
2023-03-26T08:14:21.668Z,6.57
2023-03-26T08:17:16.639Z,6.65
2023-03-26T08:19:51.000Z,5.97
2023-03-26T08:22:27.357Z,6.32
2023-03-26T08:25:47.058Z,6.00
2023-03-26T08:28:26.610Z,5.47
2023-03-26T08:30:55.163Z,6.00
2023-03-26T08:33:25.847Z,4.95
2023-03-26T08:35:52.288Z,6.93
2023-03-26T08:38:20.575Z,5.93
2023-03-26T08:41:11.526Z,5.37
2023-03-26T08:44:11.001Z,5.82
2023-03-26T08:46:49.180Z,6.43
2023-03-26T08:49:46.445Z,5.68
2023-03-26T08:52:33.392Z,6.43
2023-03-26T08:55:27.642Z,7.03
2023-03-26T08:58:25.198Z,6.32
2023-03-26T09:01:06.518Z,6.57
2023-03-26T09:04:14.256Z,7.45
2023-03-26T09:07:09.695Z,7.85
2023-03-26T09:10:11.776Z,7.33
2023-03-26T09:13:06.526Z,7.03
2023-03-26T09:15:32.819Z,7.43
2023-03-26T09:18:48.692Z,7.20
2023-03-26T09:21:25.520Z,6.88
2023-03-26T09:24:14.090Z,6.97
2023-03-26T09:27:11.039Z,7.20
2023-03-26T09:30:01.346Z,7.00
2023-03-26T09:32:58.328Z,6.38
2023-03-26T09:35:27.463Z,6.22
2023-03-26T09:38:11.256Z,5.83
2023-03-26T09:40:54.139Z,5.88
2023-03-26T09:43:42.118Z,6.00
2023-03-26T09:46:28.967Z,5.82
2023-03-26T09:49:34.429Z,6.65
2023-03-26T09:52:32.270Z,8.00
2023-03-26T09:55:19.569Z,5.95
2023-03-26T09:58:10.743Z,6.05
2023-03-26T10:01:01.298Z,5.40
2023-03-26T10:03:47.459Z,4.97
2023-03-26T10:06:16.637Z,4.80
2023-03-26T10:09:15.229Z,5.18
2023-03-26T10:11:58.044Z,4.95
2023-03-26T10:14:36.623Z,4.10
2023-03-26T10:17:20.168Z,5.28
2023-03-26T10:20:21.460Z,3.93
2023-03-26T10:23:27.034Z,3.95
2023-03-26T10:26:19.878Z,3.90
2023-03-26T10:29:18.917Z,4.22
2023-03-26T10:32:20.587Z,3.78
2023-03-26T10:35:19.466Z,4.30
2023-03-26T10:38:08.643Z,4.60
2023-03-26T10:40:54.211Z,3.85
2023-03-26T10:44:01.230Z,3.65
2023-03-26T10:46:52.665Z,3.70
2023-03-26T10:49:49.894Z,3.30
2023-03-26T10:52:22.304Z,3.33
2023-03-26T10:54:55.037Z,2.90
2023-03-26T10:57:38.785Z,2.72
2023-03-26T11:00:26.445Z,2.65
2023-03-26T11:03:16.068Z,2.93
2023-03-26T11:06:06.228Z,2.45
2023-03-26T11:08:40.959Z,2.40
2023-03-26T11:11:27.982Z,2.45
2023-03-26T11:14:31.866Z,2.65
2023-03-26T11:17:40.942Z,2.17
2023-03-26T11:20:09.743Z,2.20
2023-03-26T11:22:52.374Z,2.10
2023-03-26T11:25:37.289Z,2.38
2023-03-26T11:28:09.169Z,2.20
2023-03-26T11:30:53.165Z,2.33
2023-03-26T11:33:24.374Z,2.22
2023-03-26T11:35:55.225Z,2.08
2023-03-26T11:38:41.892Z,2.17
2023-03-26T11:41:15.849Z,2.03
2023-03-26T11:44:24.596Z,2.20
2023-03-26T11:46:58.788Z,2.33
2023-03-26T11:49:26.281Z,2.03
2023-03-26T11:51:52.710Z,1.60
2023-03-26T11:54:21.011Z,2.03
2023-03-26T11:57:04.438Z,2.17
2023-03-26T11:59:59.396Z,2.42
2023-03-26T12:02:32.290Z,2.45
2023-03-26T12:05:26.691Z,2.20
2023-03-26T12:08:02.108Z,2.25
2023-03-26T12:10:37.818Z,2.50
2023-03-26T12:13:35.555Z,1.83
2023-03-26T12:16:13.157Z,1.95
2023-03-26T12:18:41.656Z,1.90
2023-03-26T12:21:12.623Z,2.45
2023-03-26T12:24:04.699Z,1.97
2023-03-26T12:26:35.770Z,2.03
2023-03-26T12:29:11.442Z,2.40
2023-03-26T12:32:01.873Z,2.28
2023-03-26T12:34:35.451Z,1.77
2023-03-26T12:37:03.604Z,1.93
2023-03-26T12:40:07.369Z,1.17
2023-03-26T12:44:44.293Z,1.48
2023-03-26T12:45:22.528Z,1.73
2023-03-26T12:48:00.800Z,1.80
2023-03-26T12:51:05.017Z,1.30
2023-03-26T12:53:42.886Z,1.23
2023-03-26T12:56:19.856Z,1.70
2023-03-26T12:59:01.549Z,1.38
2023-03-26T13:01:35.442Z,1.42
2023-03-26T13:04:36.143Z,1.30
2023-03-26T13:07:45.755Z,1.38
2023-03-26T13:10:29.229Z,1.92
2023-03-26T13:13:33.699Z,1.42
2023-03-26T13:16:14.770Z,1.05
2023-03-26T13:19:07.166Z,1.20
2023-03-26T13:22:09.116Z,0.90
2023-03-26T13:24:56.394Z,1.75
2023-03-26T13:27:36.762Z,1.77
2023-03-26T13:30:48.355Z,1.38
2023-03-26T13:33:38.401Z,1.40
2023-03-26T13:36:26.620Z,1.35
2023-03-26T13:39:24.824Z,1.50
2023-03-26T13:42:15.731Z,1.33
2023-03-26T13:45:04.994Z,1.10
2023-03-26T13:47:41.030Z,0.70
2023-03-26T13:50:14.699Z,1.35
2023-03-26T13:52:49.046Z,1.27
2023-03-26T13:55:43.771Z,1.00
2023-03-26T13:58:36.727Z,1.30
2023-03-26T14:01:23.285Z,1.20
2023-03-26T14:04:08.397Z,0.88
2023-03-26T14:06:57.873Z,0.98
2023-03-26T14:09:31.911Z,1.10
2023-03-26T14:12:03.945Z,1.83
2023-03-26T14:14:46.423Z,0.97
2023-03-26T14:17:22.281Z,0.80
2023-03-26T14:20:25.175Z,1.15
2023-03-26T14:23:16.579Z,1.25
2023-03-26T14:26:19.103Z,1.48
2023-03-26T14:29:07.665Z,0.90
2023-03-26T14:31:54.792Z,0.80
2023-03-26T14:34:38.235Z,1.00
2023-03-26T14:37:32.951Z,1.05
2023-03-26T14:40:33.490Z,1.20
2023-03-26T14:43:38.937Z,0.80
2023-03-26T14:46:29.674Z,0.95
2023-03-26T14:49:02.190Z,0.80
2023-03-26T14:51:52.571Z,1.27
2023-03-26T14:54:24.863Z,1.15
2023-03-26T14:57:06.150Z,1.50
2023-03-26T15:00:07.215Z,0.98
2023-03-26T15:03:07.949Z,1.20
2023-03-26T15:05:59.500Z,1.02
2023-03-26T15:09:11.142Z,1.50
2023-03-26T15:12:13.185Z,1.30
2023-03-26T15:14:39.914Z,1.33
2023-03-26T15:17:41.649Z,1.90
2023-03-26T15:20:20.297Z,1.30
2023-03-26T15:23:14.502Z,1.73
2023-03-26T15:25:46.785Z,1.03
2023-03-26T15:28:51.350Z,1.20
2023-03-26T15:31:55.715Z,1.45
2023-03-26T15:34:59.941Z,0.68
2023-03-26T15:38:03.942Z,1.30
2023-03-26T15:41:19.548Z,1.10
2023-03-26T15:47:05.749Z,1.60
2023-03-26T15:49:50.044Z,0.90
2023-03-26T15:52:19.348Z,2.08
2023-03-26T15:54:55.794Z,1.40
2023-03-26T15:57:40.993Z,1.30
2023-03-26T16:00:22.999Z,1.30
2023-03-26T16:03:17.788Z,1.50
2023-03-26T16:05:57.293Z,1.75
2023-03-26T16:08:39.122Z,1.30
2023-03-26T16:11:12.411Z,1.55
2023-03-26T16:13:39.246Z,1.25
2023-03-26T16:16:14.867Z,1.10
2023-03-26T16:18:57.167Z,1.30
2023-03-26T16:21:39.439Z,1.23
2023-03-26T16:24:05.782Z,1.27
2023-03-26T16:26:44.430Z,1.40
2023-03-26T16:29:18.065Z,1.05
2023-03-26T16:32:18.874Z,1.70
2023-03-26T16:34:59.445Z,1.23
2023-03-26T16:37:37.977Z,0.98
2023-03-26T16:40:16.843Z,1.50
2023-03-26T16:43:05.196Z,1.67
2023-03-26T16:45:44.091Z,1.88
2023-03-26T16:48:22.725Z,1.10
2023-03-26T16:51:04.753Z,1.20
2023-03-26T16:53:42.726Z,1.70
2023-03-26T16:56:16.770Z,1.25
2023-03-26T16:59:00.412Z,1.38
2023-03-26T17:01:42.900Z,0.90
2023-03-26T17:04:23.234Z,1.00
2023-03-26T17:07:28.627Z,0.82
2023-03-26T17:10:21.835Z,0.88
2023-03-26T17:13:01.422Z,1.00
2023-03-26T17:15:58.932Z,1.40
2023-03-26T17:18:46.876Z,1.05
2023-03-26T17:21:47.123Z,1.10
2023-03-26T17:24:40.690Z,0.88
2023-03-26T17:27:26.543Z,1.20
2023-03-26T17:30:07.444Z,0.93
2023-03-26T17:32:54.045Z,0.90
2023-03-26T17:35:36.485Z,1.05
2023-03-26T17:38:03.895Z,0.88
2023-03-26T17:40:45.029Z,1.48
2023-03-26T17:43:31.791Z,1.33
2023-03-26T17:46:03.094Z,1.00
2023-03-26T17:48:36.457Z,1.20
2023-03-26T17:51:20.834Z,0.85
2023-03-26T17:53:47.594Z,0.98
2023-03-26T17:56:18.652Z,0.50
2023-03-26T17:58:52.680Z,0.60
2023-03-26T18:01:41.346Z,0.80
2023-03-26T18:04:21.354Z,1.08
2023-03-26T18:07:07.746Z,1.05
2023-03-26T18:09:40.177Z,1.13
2023-03-26T18:12:32.226Z,1.10
2023-03-26T18:15:22.427Z,1.23
2023-03-26T18:17:49.020Z,0.63
2023-03-26T18:20:25.050Z,1.13
2023-03-26T18:22:53.711Z,0.80
2023-03-26T18:25:32.130Z,0.95
2023-03-26T18:28:01.967Z,1.00
2023-03-26T18:30:29.318Z,0.90
2023-03-26T18:33:11.928Z,1.23
2023-03-26T18:35:42.194Z,1.00
2023-03-26T18:38:14.067Z,0.70
2023-03-26T18:40:43.020Z,1.67
2023-03-26T18:43:28.816Z,0.80
2023-03-26T18:46:01.310Z,0.93
2023-03-26T18:48:28.911Z,0.50
2023-03-26T18:51:05.874Z,0.95
2023-03-26T18:53:39.880Z,1.25
2023-03-26T18:56:29.850Z,1.02
2023-03-26T18:58:59.152Z,1.10
2023-03-26T19:01:30.522Z,0.87
2023-03-26T19:04:02.081Z,0.93
2023-03-26T19:06:28.902Z,2.35
2023-03-26T19:08:57.504Z,1.10
2023-03-26T19:11:26.131Z,1.00
2023-03-26T19:14:03.881Z,0.90
2023-03-26T19:16:37.684Z,0.93
2023-03-26T19:19:07.490Z,0.88
2023-03-26T19:21:35.682Z,0.75
2023-03-26T19:24:03.903Z,0.90
2023-03-26T19:26:31.479Z,1.03
2023-03-26T19:28:58.265Z,1.30
2023-03-26T19:31:34.137Z,1.00
2023-03-26T19:34:20.320Z,0.90
2023-03-26T19:37:00.969Z,0.77
2023-03-26T19:39:41.559Z,1.30
2023-03-26T19:42:17.730Z,0.68
2023-03-26T19:44:44.760Z,1.20
2023-03-26T19:47:26.756Z,0.88
2023-03-26T19:50:23.348Z,1.40
2023-03-26T19:53:28.472Z,0.63
2023-03-26T19:55:57.406Z,0.77
2023-03-26T19:58:26.676Z,0.68
2023-03-26T20:00:53.257Z,0.75
2023-03-26T20:03:30.328Z,1.08
2023-03-26T20:05:56.847Z,0.70
2023-03-26T20:08:27.028Z,0.50
2023-03-26T20:10:56.290Z,0.90
2023-03-26T20:13:22.793Z,0.70
2023-03-26T20:16:05.173Z,0.77
2023-03-26T20:18:33.203Z,0.90
2023-03-26T20:20:59.576Z,0.55
2023-03-26T20:23:28.843Z,0.60
2023-03-26T20:25:55.616Z,0.90
2023-03-26T20:28:22.242Z,1.40
2023-03-26T20:30:50.030Z,0.53
2023-03-26T20:33:26.778Z,0.90
2023-03-26T20:35:55.395Z,0.85
2023-03-26T20:38:36.601Z,0.70
2023-03-26T20:41:04.138Z,0.80
2023-03-26T20:43:30.915Z,0.83
2023-03-26T20:45:58.514Z,0.55
2023-03-26T20:48:27.076Z,0.82
2023-03-26T20:50:54.096Z,0.75
2023-03-26T20:53:20.722Z,0.60
2023-03-26T20:55:47.952Z,0.70
2023-03-26T20:58:31.103Z,0.82
2023-03-26T21:01:01.474Z,1.10
2023-03-26T21:03:28.039Z,0.70
2023-03-26T21:05:54.458Z,0.70
2023-03-26T21:08:22.243Z,0.80
2023-03-26T21:10:48.885Z,0.82
2023-03-26T21:13:38.945Z,0.80
2023-03-26T21:16:06.499Z,0.80
2023-03-26T21:18:33.495Z,0.90
2023-03-26T21:21:26.120Z,0.80
2023-03-26T21:24:00.226Z,0.70
2023-03-26T21:26:34.666Z,0.80
2023-03-26T21:29:08.704Z,0.40
2023-03-26T21:31:37.952Z,0.85
2023-03-26T21:34:05.468Z,0.43
2023-03-26T21:36:32.653Z,0.88
2023-03-26T21:38:59.567Z,0.77
2023-03-26T21:41:41.160Z,0.73
2023-03-26T21:44:08.544Z,1.13
2023-03-26T21:46:35.413Z,0.57
2023-03-26T21:49:02.664Z,0.70
2023-03-26T21:51:29.471Z,0.93
2023-03-26T21:53:56.277Z,1.25
2023-03-26T21:56:38.641Z,0.88
2023-03-26T21:59:35.502Z,1.00
2023-03-26T22:02:26.904Z,1.23
2023-03-26T22:05:17.022Z,1.30
2023-03-26T22:07:56.046Z,1.17
2023-03-26T22:10:23.027Z,1.10
2023-03-26T22:12:50.058Z,1.20
2023-03-26T22:15:19.122Z,1.30
2023-03-26T22:17:53.622Z,1.70
2023-03-26T22:20:24.427Z,0.95
2023-03-26T22:22:53.088Z,1.00
2023-03-26T22:25:20.902Z,0.50
2023-03-26T22:27:48.568Z,0.70
2023-03-26T22:30:15.690Z,1.15
2023-03-26T22:32:43.303Z,1.00
2023-03-26T22:35:09.796Z,0.88
2023-03-26T22:37:37.133Z,0.87
2023-03-26T22:40:13.614Z,0.85
2023-03-26T22:42:41.291Z,0.80
2023-03-26T22:45:09.437Z,1.00
2023-03-26T22:47:36.009Z,0.65
2023-03-26T22:50:04.155Z,0.80
2023-03-26T22:52:31.337Z,0.93
2023-03-26T22:54:57.884Z,0.95
2023-03-26T22:57:24.456Z,0.63
2023-03-26T22:59:52.045Z,0.80
2023-03-26T23:02:19.321Z,0.80
2023-03-26T23:04:47.761Z,0.90
2023-03-26T23:07:14.550Z,0.80
2023-03-26T23:09:41.596Z,0.70
2023-03-26T23:12:08.228Z,0.88
2023-03-26T23:14:34.673Z,0.60
2023-03-26T23:17:01.538Z,1.45
2023-03-26T23:19:30.108Z,0.88
2023-03-26T23:21:57.539Z,0.70
2023-03-26T23:24:26.280Z,1.30
2023-03-26T23:26:53.152Z,0.80
2023-03-26T23:29:19.869Z,0.90
2023-03-26T23:31:46.552Z,1.15
2023-03-26T23:34:13.549Z,0.93
2023-03-26T23:36:40.881Z,1.15
2023-03-26T23:39:09.004Z,0.93
2023-03-26T23:41:35.386Z,1.20
2023-03-26T23:44:01.757Z,0.68
2023-03-26T23:46:34.811Z,0.65
2023-03-26T23:49:04.736Z,0.90
2023-03-26T23:51:31.687Z,0.93
2023-03-26T23:53:58.435Z,0.80
2023-03-26T23:56:24.917Z,1.30
2023-03-26T23:58:51.363Z,0.65
